Time;durP1;ratioP1;P1;durP2;ratioP2;P2;SDS_P1;SDS_P2;PMS_P1;PMS_P2;Temp;Humidity;BMP_temperature;BMP_pressure;BME280_temperature;BME280_humidity;BME280_pressure;Samples;Min_cycle;Max_cycle;Signal;HPM_P1;HPM_P2
2023/06/29 00:00:57;;;;;;;30.00;15.60;;;;;;;;;;6201848;28;20028;-81
2023/06/29 00:03:57;;;;;;;21.73;14.70;;;;;;;;;;6217486;28;20091;-81
2023/06/29 00:07:01;;;;;;;19.97;12.17;;;;;;;;;;6213436;28;20026;-81
2023/06/29 00:10:02;;;;;;;18.38;13.27;;;;;;;;;;6219414;28;20030;-81
2023/06/29 00:13:02;;;;;;;19.07;12.03;;;;;;;;;;6196082;28;20381;-82
2023/06/29 00:16:02;;;;;;;21.60;13.73;;;;;;;;;;6219203;28;20510;-81
2023/06/29 00:19:03;;;;;;;22.13;12.77;;;;;;;;;;6214538;28;20017;-82
2023/06/29 00:22:03;;;;;;;21.90;13.30;;;;;;;;;;6218995;28;20512;-82
2023/06/29 00:25:06;;;;;;;25.92;15.13;;;;;;;;;;6215818;28;20048;-82
2023/06/29 00:28:07;;;;;;;;;;;;;;;;;;6217254;28;20034;-82
2023/06/29 00:31:07;;;;;;;26.73;14.63;;;;;;;;;;6217095;28;20273;-82
2023/06/29 00:34:07;;;;;;;26.13;14.07;;;;;;;;;;6218460;28;20065;-83
2023/06/29 00:37:07;;;;;;;19.48;12.68;;;;;;;;;;6218071;28;20119;-81
2023/06/29 00:40:08;;;;;;;25.97;13.30;;;;;;;;;;6217911;28;20026;-82
2023/06/29 00:43:08;;;;;;;20.80;13.33;;;;;;;;;;6213845;28;20007;-82
2023/06/29 00:46:09;;;;;;;23.00;14.00;;;;;;;;;;6217853;28;20380;-83
2023/06/29 00:49:10;;;;;;;28.60;13.27;;;;;;;;;;6218044;28;20488;-83
2023/06/29 00:52:10;;;;;;;23.00;14.17;;;;;;;;;;6214033;28;20265;-83
2023/06/29 00:55:10;;;;;;;22.20;12.97;;;;;;;;;;6216335;28;20018;-82
2023/06/29 00:58:11;;;;;;;21.90;12.83;;;;;;;;;;6218070;28;20046;-81
2023/06/29 01:01:11;;;;;;;20.70;13.20;;;;;;;;;;6217745;28;20412;-82
2023/06/29 01:04:17;;;;;;;22.33;14.47;;;;;;;;;;6217247;28;20047;-77
2023/06/29 01:07:24;;;;;;;25.38;14.80;;;;;;;;;;6211863;28;20484;-77
2023/06/29 01:10:25;;;;;;;20.05;13.85;;;;;;;;;;6215978;28;20057;-77
2023/06/29 01:13:27;;;;;;;22.02;14.90;;;;;;;;;;6212419;28;20022;-82
2023/06/29 01:16:32;;;;;;;23.85;14.65;;;;;;;;;;6215995;28;20026;-82
2023/06/29 01:19:33;;;;;;;21.58;14.75;;;;;;;;;;6217273;28;20030;-82
2023/06/29 01:22:41;;;;;;;26.23;15.13;;;;;;;;;;6217840;28;20021;-77
2023/06/29 01:25:42;;;;;;;25.52;14.10;;;;;;;;;;6208369;28;20253;-77
2023/06/29 01:28:42;;;;;;;18.88;13.63;;;;;;;;;;6198792;28;20096;-76
2023/06/29 01:31:44;;;;;;;22.73;14.97;;;;;;;;;;6214239;28;20499;-76
2023/06/29 01:34:44;;;;;;;23.85;15.27;;;;;;;;;;6214083;28;20492;-76
2023/06/29 01:37:59;;;;;;;22.40;13.90;;;;;;;;;;6217386;28;20022;-76
2023/06/29 01:40:59;;;;;;;25.67;16.17;;;;;;;;;;6215450;28;20397;-76
2023/06/29 01:44:02;;;;;;;22.77;15.13;;;;;;;;;;6216901;28;20014;-76
2023/06/29 01:47:03;;;;;;;24.70;16.15;;;;;;;;;;6217483;28;20026;-76
2023/06/29 01:50:04;;;;;;;24.98;15.70;;;;;;;;;;6221870;28;20476;-76
2023/06/29 01:53:04;;;;;;;25.70;16.23;;;;;;;;;;6222539;28;20018;-76
2023/06/29 01:56:04;;;;;;;26.20;15.80;;;;;;;;;;6222132;28;20388;-76
2023/06/29 01:59:05;;;;;;;28.67;16.47;;;;;;;;;;6222017;28;20013;-76
2023/06/29 02:02:05;;;;;;;24.10;15.40;;;;;;;;;;6221411;28;20036;-76
2023/06/29 02:05:06;;;;;;;29.07;16.57;;;;;;;;;;6221381;28;20006;-76
2023/06/29 02:08:06;;;;;;;26.30;16.53;;;;;;;;;;6221063;28;20114;-76
2023/06/29 02:11:06;;;;;;;26.75;16.38;;;;;;;;;;6217341;28;20032;-76
2023/06/29 02:14:06;;;;;;;24.40;15.03;;;;;;;;;;6220371;28;20018;-76
2023/06/29 02:17:08;;;;;;;21.73;14.50;;;;;;;;;;6221410;28;20123;-77
2023/06/29 02:20:09;;;;;;;26.92;14.48;;;;;;;;;;6222064;28;20022;-76
2023/06/29 02:23:09;;;;;;;23.10;13.90;;;;;;;;;;6216595;28;20017;-76
2023/06/29 02:26:09;;;;;;;27.40;16.30;;;;;;;;;;6221451;28;20472;-76
2023/06/29 02:29:10;;;;;;;26.27;13.57;;;;;;;;;;6215173;28;20046;-77
2023/06/29 02:32:10;;;;;;;26.83;16.77;;;;;;;;;;6219893;28;20026;-74
2023/06/29 02:35:10;;;;;;;22.80;14.27;;;;;;;;;;6219474;28;20033;-74
2023/06/29 02:38:10;;;;;;;26.00;16.17;;;;;;;;;;6221132;28;20053;-77
2023/06/29 02:41:11;;;;;;;20.37;13.60;;;;;;;;;;6213678;28;20113;-77
2023/06/29 02:44:11;;;;;;;25.73;15.00;;;;;;;;;;6201458;28;20152;-77
2023/06/29 02:47:11;;;;;;;18.50;13.48;;;;;;;;;;6220170;28;20018;-77
2023/06/29 02:50:11;;;;;;;25.67;15.10;;;;;;;;;;6220515;28;20732;-77
2023/06/29 02:53:14;;;;;;;22.63;14.88;;;;;;;;;;6220254;28;20017;-77
2023/06/29 02:56:14;;;;;;;25.85;15.05;;;;;;;;;;6217843;28;20113;-77
2023/06/29 02:59:14;;;;;;;26.03;16.37;;;;;;;;;;6219647;28;20492;-77
2023/06/29 03:02:15;;;;;;;25.47;16.23;;;;;;;;;;6219944;28;20018;-78
2023/06/29 03:05:15;;;;;;;24.63;16.13;;;;;;;;;;6220531;28;20033;-77
2023/06/29 03:08:15;;;;;;;27.60;16.93;;;;;;;;;;6208929;28;20093;-77
2023/06/29 03:11:15;;;;;;;21.90;14.83;;;;;;;;;;6219992;28;20020;-77
2023/06/29 03:14:16;;;;;;;26.23;16.13;;;;;;;;;;6218723;28;20472;-77
2023/06/29 03:17:16;;;;;;;26.92;16.13;;;;;;;;;;6214177;28;20050;-74
2023/06/29 03:20:16;;;;;;;21.23;15.63;;;;;;;;;;6214471;28;20408;-74
2023/06/29 03:23:17;;;;;;;22.23;16.13;;;;;;;;;;6200376;28;20028;-74
2023/06/29 03:26:17;;;;;;;32.70;19.67;;;;;;;;;;6218982;28;20018;-74
2023/06/29 03:29:17;;;;;;;25.83;17.33;;;;;;;;;;6215268;28;20081;-74
2023/06/29 03:32:17;;;;;;;27.77;19.13;;;;;;;;;;6200492;28;20025;-80
2023/06/29 03:35:17;;;;;;;30.20;16.92;;;;;;;;;;6202165;28;20030;-80
2023/06/29 03:38:17;;;;;;;30.20;21.02;;;;;;;;;;6216922;28;20018;-80
2023/06/29 03:41:18;;;;;;;25.70;17.73;;;;;;;;;;6218837;28;20105;-80
2023/06/29 03:44:18;;;;;;;27.00;18.60;;;;;;;;;;6217898;28;20089;-80
2023/06/29 03:47:18;;;;;;;31.17;20.00;;;;;;;;;;6219696;28;20014;-80
2023/06/29 03:50:18;;;;;;;31.80;19.33;;;;;;;;;;6219440;28;20374;-81
2023/06/29 03:53:18;;;;;;;26.17;17.00;;;;;;;;;;6213790;28;20022;-80
2023/06/29 03:56:19;;;;;;;27.42;17.80;;;;;;;;;;6219458;28;20102;-80
2023/06/29 03:59:19;;;;;;;25.33;17.77;;;;;;;;;;6219635;28;20535;-80
2023/06/29 04:02:19;;;;;;;25.63;18.13;;;;;;;;;;6219400;28;20097;-80
2023/06/29 04:05:19;;;;;;;21.33;14.80;;;;;;;;;;6216309;28;20018;-80
2023/06/29 04:08:19;;;;;;;29.48;16.38;;;;;;;;;;6202065;28;20026;-81
2023/06/29 04:11:20;;;;;;;25.27;14.33;;;;;;;;;;6217849;28;20022;-81
2023/06/29 04:14:20;;;;;;;19.30;13.80;;;;;;;;;;6219213;28;20546;-81
2023/06/29 04:17:20;;;;;;;19.87;14.90;;;;;;;;;;6212141;28;20116;-81
2023/06/29 04:20:20;;;;;;;27.10;16.38;;;;;;;;;;6218728;28;20400;-81
2023/06/29 04:23:20;;;;;;;18.07;12.77;;;;;;;;;;6218738;28;20057;-79
2023/06/29 04:26:21;;;;;;;16.50;12.67;;;;;;;;;;6218650;28;20018;-80
2023/06/29 04:29:21;;;;;;;19.93;13.70;;;;;;;;;;6213995;28;20116;-81
2023/06/29 04:32:21;;;;;;;21.23;13.83;;;;;;;;;;6218688;28;20044;-75
2023/06/29 04:35:22;;;;;;;16.48;12.68;;;;;;;;;;6218803;28;20030;-75
2023/06/29 04:38:25;;;;;;;22.83;12.13;;;;;;;;;;6218371;28;20017;-75
2023/06/29 04:41:32;;;;;;;18.02;12.35;;;;;;;;;;6214527;28;20072;-75
2023/06/29 04:44:33;;;;;;;16.63;11.68;;;;;;;;;;6217587;28;20099;-75
2023/06/29 04:47:33;;;;;;;14.40;11.50;;;;;;;;;;6217604;28;20563;-75
2023/06/29 04:50:36;;;;;;;20.83;12.53;;;;;;;;;;6217869;28;20072;-75
2023/06/29 04:53:36;;;;;;;15.50;12.13;;;;;;;;;;6217807;28;20025;-75
2023/06/29 04:56:37;;;;;;;18.70;12.87;;;;;;;;;;6217986;28;20041;-75
2023/06/29 04:59:37;;;;;;;18.83;12.60;;;;;;;;;;6212591;28;20018;-75
2023/06/29 05:02:38;;;;;;;18.07;12.70;;;;;;;;;;6217460;28;20022;-75
2023/06/29 05:05:38;;;;;;;17.13;11.10;;;;;;;;;;6216352;28;20053;-75
2023/06/29 05:08:38;;;;;;;16.00;10.63;;;;;;;;;;6215609;28;20469;-75
2023/06/29 05:11:38;;;;;;;20.50;12.73;;;;;;;;;;6217303;28;20014;-80
2023/06/29 05:14:38;;;;;;;21.93;12.30;;;;;;;;;;6218123;28;20540;-77
2023/06/29 05:17:39;;;;;;;16.83;10.77;;;;;;;;;;6217809;28;20022;-81
2023/06/29 05:20:39;;;;;;;15.00;11.60;;;;;;;;;;6198483;28;20477;-80
2023/06/29 05:23:39;;;;;;;16.27;12.25;;;;;;;;;;6226049;28;20022;-81
2023/06/29 05:26:39;;;;;;;20.98;11.00;;;;;;;;;;6226120;28;20025;-81
2023/06/29 05:29:39;;;;;;;18.00;12.60;;;;;;;;;;6225889;28;20209;-80
2023/06/29 05:32:39;;;;;;;21.67;12.30;;;;;;;;;;6225680;28;20553;-82
2023/06/29 05:35:40;;;;;;;19.23;11.87;;;;;;;;;;6221351;28;20476;-80
2023/06/29 05:38:40;;;;;;;16.00;10.73;;;;;;;;;;6226081;28;20140;-82
2023/06/29 05:41:40;;;;;;;17.70;9.73;;;;;;;;;;6220864;28;20587;-75
2023/06/29 05:44:40;;;;;;;19.13;12.57;;;;;;;;;;6221896;28;20032;-82
2023/06/29 05:47:41;;;;;;;16.37;10.90;;;;;;;;;;6225052;28;20061;-82
2023/06/29 05:50:41;;;;;;;51.77;28.37;;;;;;;;;;6223995;28;20508;-82
2023/06/29 05:53:41;;;;;;;45.97;25.20;;;;;;;;;;6224465;28;20022;-81
2023/06/29 05:56:41;;;;;;;25.40;14.57;;;;;;;;;;6225195;28;20032;-81
2023/06/29 05:59:41;;;;;;;14.97;10.07;;;;;;;;;;6224857;28;20030;-81
2023/06/29 06:02:42;;;;;;;16.43;10.70;;;;;;;;;;6225597;28;20022;-83
2023/06/29 06:05:42;;;;;;;15.20;11.13;;;;;;;;;;6225663;28;20025;-81
2023/06/29 06:08:42;;;;;;;16.13;10.10;;;;;;;;;;6225156;28;20026;-82
2023/06/29 06:11:42;;;;;;;16.63;9.77;;;;;;;;;;6225040;28;20025;-80
2023/06/29 06:14:42;;;;;;;15.23;9.60;;;;;;;;;;6225089;28;20448;-82
2023/06/29 06:17:43;;;;;;;11.17;8.50;;;;;;;;;;6225365;28;20021;-82
2023/06/29 06:20:43;;;;;;;14.10;9.40;;;;;;;;;;6225003;28;20655;-81
2023/06/29 06:23:43;;;;;;;12.27;8.38;;;;;;;;;;6225841;28;20100;-75
2023/06/29 06:26:43;;;;;;;13.20;9.43;;;;;;;;;;6207360;28;20064;-75
2023/06/29 06:29:43;;;;;;;13.83;9.17;;;;;;;;;;6222911;28;20049;-75
2023/06/29 06:32:44;;;;;;;12.67;9.13;;;;;;;;;;6222994;28;20053;-76
2023/06/29 06:35:44;;;;;;;10.77;8.27;;;;;;;;;;6220881;28;20091;-75
2023/06/29 06:38:45;;;;;;;12.83;9.00;;;;;;;;;;6221408;28;20028;-76
2023/06/29 06:41:45;;;;;;;13.37;8.90;;;;;;;;;;6220377;28;20109;-75
2023/06/29 06:44:52;;;;;;;12.30;8.90;;;;;;;;;;6220863;28;20006;-75
2023/06/29 06:47:52;;;;;;;13.30;9.32;;;;;;;;;;6220185;28;20022;-76
2023/06/29 06:50:52;;;;;;;11.13;7.83;;;;;;;;;;6220526;28;20076;-76
2023/06/29 06:53:53;;;;;;;10.67;7.77;;;;;;;;;;6220168;28;20436;-76
2023/06/29 06:56:54;;;;;;;11.55;7.75;;;;;;;;;;6217615;28;20025;-75
2023/06/29 06:59:54;;;;;;;13.57;8.87;;;;;;;;;;6220960;28;20041;-76
2023/06/29 07:02:54;;;;;;;11.73;7.32;;;;;;;;;;6215158;28;20019;-82
2023/06/29 07:05:55;;;;;;;13.33;7.70;;;;;;;;;;6219133;28;20441;-81
2023/06/29 07:08:55;;;;;;;11.75;8.80;;;;;;;;;;6214615;28;20029;-80
2023/06/29 07:11:55;;;;;;;12.38;7.60;;;;;;;;;;6217772;28;20057;-81
2023/06/29 07:14:55;;;;;;;8.75;6.50;;;;;;;;;;6205667;28;20034;-81
2023/06/29 07:17:56;;;;;;;10.57;7.82;;;;;;;;;;6219588;28;20105;-81
2023/06/29 07:20:56;;;;;;;16.10;8.20;;;;;;;;;;6232838;28;20029;-79
2023/06/29 07:23:56;;;;;;;12.05;6.72;;;;;;;;;;6222466;28;20097;-80
2023/06/29 07:26:56;;;;;;;8.55;6.93;;;;;;;;;;6222496;28;20033;-80
2023/06/29 07:29:56;;;;;;;12.35;7.85;;;;;;;;;;6229607;28;20045;-81
2023/06/29 07:32:57;;;;;;;10.07;5.80;;;;;;;;;;6223556;28;20018;-81
2023/06/29 07:35:57;;;;;;;10.33;5.77;;;;;;;;;;6221987;28;20021;-81
2023/06/29 07:38:57;;;;;;;8.40;6.17;;;;;;;;;;6235562;28;20017;-80
2023/06/29 07:41:57;;;;;;;9.63;5.90;;;;;;;;;;6222014;28;20022;-80
2023/06/29 07:44:57;;;;;;;8.73;6.40;;;;;;;;;;6227814;28;20476;-80
2023/06/29 07:47:58;;;;;;;11.53;7.30;;;;;;;;;;6225005;28;20044;-80
2023/06/29 07:50:58;;;;;;;9.50;6.77;;;;;;;;;;6220207;28;20025;-80
2023/06/29 07:54:00;;;;;;;9.10;7.23;;;;;;;;;;6222227;28;20519;-81
2023/06/29 07:57:00;;;;;;;9.25;6.25;;;;;;;;;;6225153;28;20030;-79
2023/06/29 08:00:01;;;;;;;8.63;6.13;;;;;;;;;;6224905;28;20098;-81
2023/06/29 08:03:01;;;;;;;9.00;6.33;;;;;;;;;;6210233;28;20127;-80
2023/06/29 08:06:02;;;;;;;11.50;7.20;;;;;;;;;;6228304;28;20120;-81
2023/06/29 08:09:02;;;;;;;10.88;7.03;;;;;;;;;;6227225;28;20432;-80
2023/06/29 08:12:03;;;;;;;12.45;7.22;;;;;;;;;;6223810;28;20480;-81
2023/06/29 08:15:04;;;;;;;12.73;7.43;;;;;;;;;;6226233;28;20014;-81
2023/06/29 08:18:04;;;;;;;9.87;6.73;;;;;;;;;;6226768;28;20018;-81
2023/06/29 08:21:04;;;;;;;10.93;8.23;;;;;;;;;;6233866;28;20026;-80
2023/06/29 08:24:04;;;;;;;12.30;7.40;;;;;;;;;;6223361;28;20112;-81
2023/06/29 08:27:05;;;;;;;13.40;8.33;;;;;;;;;;6226126;28;20037;-81
2023/06/29 08:30:05;;;;;;;12.47;7.67;;;;;;;;;;6234409;28;20048;-80
2023/06/29 08:33:05;;;;;;;11.30;8.13;;;;;;;;;;6223567;28;20054;-81
2023/06/29 08:36:06;;;;;;;11.37;7.03;;;;;;;;;;6230358;28;20037;-81
2023/06/29 08:39:08;;;;;;;11.87;9.30;;;;;;;;;;6231773;28;20439;-81
2023/06/29 08:42:08;;;;;;;11.05;7.88;;;;;;;;;;6223647;28;20026;-81
2023/06/29 08:45:09;;;;;;;13.30;9.27;;;;;;;;;;6227592;28;20017;-81
2023/06/29 08:48:11;;;;;;;14.30;8.47;;;;;;;;;;6220320;28;20018;-81
2023/06/29 08:51:13;;;;;;;14.68;9.82;;;;;;;;;;6227998;28;20112;-82
2023/06/29 08:54:15;;;;;;;14.40;8.50;;;;;;;;;;6230997;28;20776;-81
2023/06/29 08:57:15;;;;;;;14.48;9.85;;;;;;;;;;6218111;28;20017;-82
2023/06/29 09:00:15;;;;;;;13.70;9.87;;;;;;;;;;6229400;28;20561;-81
2023/06/29 09:03:16;;;;;;;14.90;9.27;;;;;;;;;;6233147;28;20025;-80
2023/06/29 09:06:17;;;;;;;16.98;10.85;;;;;;;;;;6222745;28;20017;-81
2023/06/29 09:09:17;;;;;;;18.97;12.37;;;;;;;;;;6214343;28;20022;-81
2023/06/29 09:12:18;;;;;;;14.00;10.23;;;;;;;;;;6217358;28;20022;-81
2023/06/29 09:15:18;;;;;;;15.20;12.10;;;;;;;;;;6220890;28;20013;-81
2023/06/29 09:18:20;;;;;;;17.73;12.73;;;;;;;;;;6214189;28;20058;-82
2023/06/29 09:21:21;;;;;;;18.70;12.35;;;;;;;;;;6194729;28;20041;-81
2023/06/29 09:24:21;;;;;;;16.33;12.85;;;;;;;;;;6214278;28;20037;-81
2023/06/29 09:27:21;;;;;;;20.10;11.87;;;;;;;;;;6202324;28;20480;-82
2023/06/29 09:30:22;;;;;;;17.97;11.47;;;;;;;;;;6212868;28;20079;-79
2023/06/29 09:33:25;;;;;;;12.73;9.57;;;;;;;;;;6216700;28;20018;-80
2023/06/29 09:36:28;;;;;;;14.15;9.27;;;;;;;;;;6214608;28;20054;-80
2023/06/29 09:39:28;;;;;;;13.50;9.05;;;;;;;;;;6214826;28;20029;-81
2023/06/29 09:42:29;;;;;;;13.33;7.97;;;;;;;;;;6205710;28;20572;-73
2023/06/29 09:45:30;;;;;;;12.17;8.03;;;;;;;;;;6207662;28;20495;-73
2023/06/29 09:48:31;;;;;;;;;;;;;;;;;;6211660;28;20028;-73
2023/06/29 09:51:31;;;;;;;11.33;7.30;;;;;;;;;;6211650;28;20369;-74
2023/06/29 09:54:35;;;;;;;10.53;7.87;;;;;;;;;;6217793;28;20022;-74
2023/06/29 09:57:36;;;;;;;12.40;8.13;;;;;;;;;;6214850;28;20026;-73
2023/06/29 10:00:37;;;;;;;10.40;7.20;;;;;;;;;;6217563;28;20080;-73
2023/06/29 10:03:37;;;;;;;11.57;6.82;;;;;;;;;;6217018;28;20006;-79
2023/06/29 10:06:46;;;;;;;11.50;8.90;;;;;;;;;;6217166;28;20037;-80
2023/06/29 10:09:47;;;;;;;11.90;7.13;;;;;;;;;;6217386;28;20053;-78
2023/06/29 10:12:49;;;;;;;11.27;7.28;;;;;;;;;;6222610;28;20508;-80
2023/06/29 10:15:51;;;;;;;9.73;7.70;;;;;;;;;;6217790;28;20590;-80
2023/06/29 10:18:54;;;;;;;10.50;7.38;;;;;;;;;;6221537;28;20021;-79
2023/06/29 10:22:03;;;;;;;11.63;7.10;;;;;;;;;;6214399;28;20104;-80
2023/06/29 10:25:06;;;;;;;11.07;8.05;;;;;;;;;;6210769;28;20050;-81
2023/06/29 10:28:07;;;;;;;8.75;6.20;;;;;;;;;;6219771;28;20069;-80
2023/06/29 10:31:07;;;;;;;11.55;7.28;;;;;;;;;;6219254;28;20088;-78
2023/06/29 10:34:07;;;;;;;9.67;7.03;;;;;;;;;;6219628;28;20018;-81
2023/06/29 10:37:07;;;;;;;11.27;7.60;;;;;;;;;;6222430;28;20034;-79
2023/06/29 10:40:11;;;;;;;10.97;6.57;;;;;;;;;;6212273;28;20064;-79
2023/06/29 10:43:11;;;;;;;10.73;6.65;;;;;;;;;;6217701;28;20460;-80
2023/06/29 10:46:13;;;;;;;9.53;6.30;;;;;;;;;;6209242;28;20097;-79
2023/06/29 10:49:24;;;;;;;11.80;7.97;;;;;;;;;;6217072;28;20018;-80
2023/06/29 10:52:24;;;;;;;10.10;6.80;;;;;;;;;;6212320;28;20022;-79
2023/06/29 10:55:26;;;;;;;14.30;8.80;;;;;;;;;;6218146;28;20097;-80
2023/06/29 10:58:31;;;;;;;9.38;7.70;;;;;;;;;;6212550;28;20503;-79
2023/06/29 11:01:32;;;;;;;11.50;6.93;;;;;;;;;;6214026;28;20018;-79
2023/06/29 11:04:32;;;;;;;8.73;5.77;;;;;;;;;;6218598;28;20033;-79
2023/06/29 11:07:32;;;;;;;8.60;5.43;;;;;;;;;;6219528;28;20396;-79
2023/06/29 11:10:32;;;;;;;8.03;6.00;;;;;;;;;;6220343;28;20041;-78
2023/06/29 11:13:33;;;;;;;8.33;4.97;;;;;;;;;;6223999;28;20390;-74
2023/06/29 11:16:34;;;;;;;10.63;5.70;;;;;;;;;;6218444;28;20113;-74
2023/06/29 11:19:34;;;;;;;9.30;5.57;;;;;;;;;;6215658;28;20396;-74
2023/06/29 11:22:36;;;;;;;10.55;6.65;;;;;;;;;;6225402;28;20030;-74
2023/06/29 11:25:36;;;;;;;11.55;7.60;;;;;;;;;;6201930;28;20033;-74
2023/06/29 11:28:37;;;;;;;7.88;5.50;;;;;;;;;;6220649;28;20153;-74
2023/06/29 11:31:37;;;;;;;12.07;5.60;;;;;;;;;;6218834;28;20087;-74
2023/06/29 11:34:38;;;;;;;9.32;5.43;;;;;;;;;;6220915;28;20066;-74
2023/06/29 11:37:39;;;;;;;7.05;5.68;;;;;;;;;;6218454;28;20097;-74
2023/06/29 11:40:39;;;;;;;;;;;;;;;;;;6219213;28;20044;-74
2023/06/29 11:43:39;;;;;;;14.10;5.80;;;;;;;;;;6219481;28;20470;-74
2023/06/29 11:46:39;;;;;;;;;;;;;;;;;;6219104;28;20062;-74
2023/06/29 11:49:39;;;;;;;7.97;5.10;;;;;;;;;;6219068;28;19932;-74
2023/06/29 11:52:39;;;;;;;;;;;;;;;;;;6220198;28;20032;-74
2023/06/29 11:55:47;;;;;;;8.48;4.97;;;;;;;;;;6215099;28;19963;-74
2023/06/29 11:58:48;;;;;;;6.00;4.13;;;;;;;;;;6219039;28;20578;-74
2023/06/29 12:01:48;;;;;;;;;;;;;;;;;;6219300;28;20054;-75
2023/06/29 12:04:56;;;;;;;6.53;4.45;;;;;;;;;;6218609;28;19916;-75
2023/06/29 12:08:03;;;;;;;8.25;4.60;;;;;;;;;;6210637;28;20014;-75
2023/06/29 12:11:03;;;;;;;6.00;4.03;;;;;;;;;;6217616;28;20050;-75
2023/06/29 12:14:03;;;;;;;;;;;;;;;;;;6196779;28;20124;-75
2023/06/29 12:17:03;;;;;;;9.20;4.90;;;;;;;;;;6208275;28;20360;-75
2023/06/29 12:20:03;;;;;;;;;;;;;;;;;;6216610;28;20022;-75
2023/06/29 12:23:04;;;;;;;5.45;3.92;;;;;;;;;;6215940;28;20039;-75
2023/06/29 12:26:04;;;;;;;;;;;;;;;;;;6198483;28;20415;-75
2023/06/29 12:29:04;;;;;;;8.13;4.85;;;;;;;;;;6220375;28;19920;-75
2023/06/29 12:32:05;;;;;;;7.73;4.17;;;;;;;;;;6239077;28;20044;-80
2023/06/29 12:35:05;;;;;;;;;;;;;;;;;;6242567;28;20478;-81
2023/06/29 12:38:05;;;;;;;7.68;4.15;;;;;;;;;;6241638;28;19915;-78
2023/06/29 12:41:06;;;;;;;;;;;;;;;;;;6239960;28;20479;-80
2023/06/29 12:44:06;;;;;;;6.88;4.78;;;;;;;;;;6240509;28;19912;-80
2023/06/29 12:47:06;;;;;;;;;;;;;;;;;;6242205;28;20017;-80
2023/06/29 12:50:06;;;;;;;6.10;3.97;;;;;;;;;;6242038;28;20024;-80
2023/06/29 12:53:07;;;;;;;6.30;3.90;;;;;;;;;;6239323;28;20083;-80
2023/06/29 12:56:07;;;;;;;6.67;4.00;;;;;;;;;;6241244;28;20021;-81
2023/06/29 12:59:07;;;;;;;6.10;4.07;;;;;;;;;;6237523;28;20156;-81
2023/06/29 13:02:08;;;;;;;5.40;3.65;;;;;;;;;;6240505;28;20033;-79
2023/06/29 13:05:08;;;;;;;5.57;3.75;;;;;;;;;;6240240;28;20021;-81
2023/06/29 13:08:08;;;;;;;8.13;4.07;;;;;;;;;;6240580;28;20066;-82
2023/06/29 13:11:09;;;;;;;7.03;4.07;;;;;;;;;;6239742;28;20026;-80
2023/06/29 13:14:09;;;;;;;;;;;;;;;;;;6241630;28;20021;-81
2023/06/29 13:17:10;;;;;;;7.93;3.95;;;;;;;;;;6240959;28;20019;-81
2023/06/29 13:20:14;;;;;;;;;;;;;;;;;;6242356;28;20025;-79
2023/06/29 13:23:14;;;;;;;6.22;4.05;;;;;;;;;;6240864;28;19923;-81
2023/06/29 13:26:14;;;;;;;8.75;3.72;;;;;;;;;;6239810;28;20101;-82
2023/06/29 13:29:15;;;;;;;6.15;4.07;;;;;;;;;;6223263;28;20037;-81
2023/06/29 13:32:15;;;;;;;5.13;3.10;;;;;;;;;;6197462;28;20036;-80
2023/06/29 13:35:15;;;;;;;8.23;3.10;;;;;;;;;;6216461;28;20519;-83
2023/06/29 13:38:16;;;;;;;5.90;3.38;;;;;;;;;;6216721;28;20022;-80
2023/06/29 13:41:18;;;;;;;4.20;3.13;;;;;;;;;;6216300;28;20499;-81
2023/06/29 13:44:18;;;;;;;6.80;3.67;;;;;;;;;;6219265;28;20022;-79
2023/06/29 13:47:19;;;;;;;6.57;3.88;;;;;;;;;;6212502;28;20099;-78
2023/06/29 13:50:19;;;;;;;4.93;3.95;;;;;;;;;;6220648;28;20018;-80
2023/06/29 13:53:19;;;;;;;5.70;3.63;;;;;;;;;;6220662;28;20045;-81
2023/06/29 13:56:20;;;;;;;;;;;;;;;;;;6220566;28;20014;-81
2023/06/29 13:59:20;;;;;;;6.57;4.20;;;;;;;;;;6215834;28;19992;-81
2023/06/29 14:02:20;;;;;;;;;;;;;;;;;;6220423;28;20021;-83
2023/06/29 14:05:20;;;;;;;8.02;4.47;;;;;;;;;;6216007;28;19905;-82
2023/06/29 14:08:20;;;;;;;;;;;;;;;;;;6203785;28;20489;-80
2023/06/29 14:11:22;;;;;;;6.47;3.53;;;;;;;;;;6220767;28;19909;-81
2023/06/29 14:14:22;;;;;;;3.80;3.05;;;;;;;;;;6203065;28;20024;-80
2023/06/29 14:17:23;;;;;;;5.00;3.33;;;;;;;;;;6220056;28;20492;-81
2023/06/29 14:20:23;;;;;;;11.37;3.67;;;;;;;;;;6220602;28;20047;-80
2023/06/29 14:23:24;;;;;;;4.40;3.07;;;;;;;;;;6221034;28;20055;-81
2023/06/29 14:26:24;;;;;;;5.88;3.38;;;;;;;;;;6220378;28;20467;-82
2023/06/29 14:29:24;;;;;;;7.37;3.27;;;;;;;;;;6224615;28;20438;-82
2023/06/29 14:32:24;;;;;;;5.03;3.40;;;;;;;;;;6220689;28;20053;-82
2023/06/29 14:35:28;;;;;;;4.57;3.08;;;;;;;;;;6221227;28;20078;-81
2023/06/29 14:38:28;;;;;;;4.97;3.08;;;;;;;;;;6216515;28;20116;-80
2023/06/29 14:41:28;;;;;;;6.20;2.73;;;;;;;;;;6220434;28;20033;-80
2023/06/29 14:44:28;;;;;;;3.92;2.80;;;;;;;;;;6219834;28;20029;-80
2023/06/29 14:47:29;;;;;;;6.10;3.10;;;;;;;;;;6219953;28;20022;-80
2023/06/29 14:50:29;;;;;;;5.97;3.00;;;;;;;;;;6220787;28;20033;-81
2023/06/29 14:53:29;;;;;;;3.83;3.00;;;;;;;;;;6220530;28;20092;-80
2023/06/29 14:56:31;;;;;;;8.67;5.60;;;;;;;;;;6202034;28;20029;-81
2023/06/29 14:59:31;;;;;;;8.65;4.30;;;;;;;;;;6219611;28;20034;-80
2023/06/29 15:02:31;;;;;;;19.70;13.02;;;;;;;;;;6202500;28;20026;-74
2023/06/29 15:05:31;;;;;;;8.45;5.88;;;;;;;;;;6217971;28;20022;-74
2023/06/29 15:08:31;;;;;;;21.93;15.00;;;;;;;;;;6223127;28;20014;-74
2023/06/29 15:11:32;;;;;;;7.47;4.50;;;;;;;;;;6210953;28;20018;-74
2023/06/29 15:14:32;;;;;;;4.80;3.42;;;;;;;;;;6212567;28;20050;-81
2023/06/29 15:17:32;;;;;;;3.60;2.67;;;;;;;;;;6219163;28;20081;-82
2023/06/29 15:20:33;;;;;;;6.90;3.50;;;;;;;;;;6218781;28;20170;-81
2023/06/29 15:23:33;;;;;;;5.97;2.80;;;;;;;;;;6221148;28;20270;-82
2023/06/29 15:26:33;;;;;;;3.43;2.70;;;;;;;;;;6218256;28;20543;-83
2023/06/29 15:29:33;;;;;;;4.33;3.23;;;;;;;;;;6229515;28;20534;-78
2023/06/29 15:32:34;;;;;;;3.03;2.27;;;;;;;;;;6215469;28;20492;-81
2023/06/29 15:35:34;;;;;;;4.50;2.55;;;;;;;;;;6200879;28;20025;-80
2023/06/29 15:38:34;;;;;;;5.65;2.55;;;;;;;;;;6222962;28;20030;-81
2023/06/29 15:41:35;;;;;;;3.20;2.87;;;;;;;;;;6219294;28;20038;-80
2023/06/29 15:44:35;;;;;;;3.85;2.55;;;;;;;;;;6213125;28;20026;-80
2023/06/29 15:47:35;;;;;;;4.45;2.72;;;;;;;;;;6220029;28;20080;-81
2023/06/29 15:50:36;;;;;;;3.55;2.67;;;;;;;;;;6211622;28;20022;-81
2023/06/29 15:53:36;;;;;;;5.83;3.00;;;;;;;;;;6210781;28;20613;-81
2023/06/29 15:56:36;;;;;;;5.07;2.67;;;;;;;;;;6219299;28;20108;-80
2023/06/29 15:59:36;;;;;;;5.77;3.83;;;;;;;;;;6212942;28;20108;-81
2023/06/29 16:02:36;;;;;;;15.63;9.93;;;;;;;;;;6218721;28;20033;-82
2023/06/29 16:05:37;;;;;;;14.70;9.93;;;;;;;;;;6221969;28;20479;-81
2023/06/29 16:08:37;;;;;;;12.50;6.65;;;;;;;;;;6208781;28;20088;-82
2023/06/29 16:11:37;;;;;;;23.27;15.88;;;;;;;;;;6215170;28;20373;-82
2023/06/29 16:14:37;;;;;;;24.80;15.50;;;;;;;;;;6214982;28;20026;-80
2023/06/29 16:17:38;;;;;;;8.80;5.10;;;;;;;;;;6205256;28;20057;-82
2023/06/29 16:20:38;;;;;;;8.30;5.10;;;;;;;;;;6209057;28;20080;-79
2023/06/29 16:23:38;;;;;;;10.03;5.10;;;;;;;;;;6211558;28;20105;-79
2023/06/29 16:26:38;;;;;;;6.85;3.45;;;;;;;;;;6210041;28;20037;-80
2023/06/29 16:29:38;;;;;;;8.97;4.17;;;;;;;;;;6210530;28;20057;-80
2023/06/29 16:32:39;;;;;;;3.50;2.50;;;;;;;;;;6208256;28;20045;-80
2023/06/29 16:35:39;;;;;;;3.50;2.20;;;;;;;;;;6213447;28;20064;-80
2023/06/29 16:38:39;;;;;;;4.63;2.70;;;;;;;;;;6215673;28;20029;-83
2023/06/29 16:41:41;;;;;;;7.17;4.30;;;;;;;;;;6217201;28;20685;-80
2023/06/29 16:44:41;;;;;;;5.40;2.28;;;;;;;;;;6217291;28;20014;-81
2023/06/29 16:47:41;;;;;;;7.10;4.60;;;;;;;;;;6215324;28;20065;-82
2023/06/29 16:50:41;;;;;;;6.17;3.33;;;;;;;;;;6216666;28;20042;-82
2023/06/29 16:53:41;;;;;;;12.13;6.27;;;;;;;;;;6216115;28;20041;-80
2023/06/29 16:56:41;;;;;;;18.53;11.27;;;;;;;;;;6216908;28;20088;-81
2023/06/29 16:59:42;;;;;;;9.00;5.63;;;;;;;;;;6194636;28;20087;-80
2023/06/29 17:02:42;;;;;;;5.20;3.20;;;;;;;;;;6195088;28;20031;-80
2023/06/29 17:05:42;;;;;;;5.00;2.73;;;;;;;;;;6215141;28;20087;-81
2023/06/29 17:08:43;;;;;;;4.20;2.63;;;;;;;;;;6213808;28;20157;-81
2023/06/29 17:11:44;;;;;;;5.30;2.85;;;;;;;;;;6216429;28;20468;-80
2023/06/29 17:14:44;;;;;;;4.15;2.53;;;;;;;;;;6216865;28;20026;-74
2023/06/29 17:17:44;;;;;;;4.95;2.53;;;;;;;;;;6213951;28;20431;-74
2023/06/29 17:20:44;;;;;;;9.73;4.30;;;;;;;;;;6217431;28;20057;-74
2023/06/29 17:23:45;;;;;;;6.90;4.05;;;;;;;;;;6217478;28;20558;-74
2023/06/29 17:26:45;;;;;;;17.42;9.95;;;;;;;;;;6216362;28;20370;-74
2023/06/29 17:29:46;;;;;;;5.75;3.40;;;;;;;;;;6220082;28;20481;-74
2023/06/29 17:32:46;;;;;;;3.90;2.03;;;;;;;;;;6213309;28;20025;-74
2023/06/29 17:35:46;;;;;;;4.00;2.80;;;;;;;;;;6211936;28;20030;-74
2023/06/29 17:38:46;;;;;;;3.47;2.30;;;;;;;;;;6216649;28;20419;-74
2023/06/29 17:41:47;;;;;;;8.80;5.68;;;;;;;;;;6219555;28;20036;-73
2023/06/29 17:44:47;;;;;;;4.03;2.38;;;;;;;;;;6214388;28;20076;-73
2023/06/29 17:47:47;;;;;;;4.28;2.22;;;;;;;;;;6217787;28;20014;-74
2023/06/29 17:50:49;;;;;;;2.30;2.10;;;;;;;;;;6217201;28;20548;-74
2023/06/29 17:53:49;;;;;;;5.75;3.00;;;;;;;;;;6210633;28;20026;-74